sensor_id;sensor_type;location;lat;lon;timestamp;pressure;altitude;pressure_sealevel;temperature;humidity
12219;BME280;6172;42.646;23.344;2022-08-02T00:00:54;94413.38;;;18.65;78.52
12219;BME280;6172;42.646;23.344;2022-08-02T00:03:21;94409.66;;;18.68;77.45
12219;BME280;6172;42.646;23.344;2022-08-02T00:05:49;94407.53;;;18.63;78.02
12219;BME280;6172;42.646;23.344;2022-08-02T00:08:16;94411.19;;;18.69;77.38
12219;BME280;6172;42.646;23.344;2022-08-02T00:13:28;94407.25;;;18.61;76.76
12219;BME280;6172;42.646;23.344;2022-08-02T00:15:55;94400.50;;;18.62;75.78
12219;BME280;6172;42.646;23.344;2022-08-02T00:18:22;94403.19;;;18.71;74.49
12219;BME280;6172;42.646;23.344;2022-08-02T00:20:50;94400.88;;;18.55;74.81
12219;BME280;6172;42.646;23.344;2022-08-02T00:23:17;94403.16;;;18.56;76.82
12219;BME280;6172;42.646;23.344;2022-08-02T00:25:44;94405.34;;;18.67;76.23
12219;BME280;6172;42.646;23.344;2022-08-02T00:28:11;94400.91;;;18.69;76.69
12219;BME280;6172;42.646;23.344;2022-08-02T00:30:38;94396.88;;;18.56;76.66
12219;BME280;6172;42.646;23.344;2022-08-02T00:33:05;94405.22;;;18.47;78.79
12219;BME280;6172;42.646;23.344;2022-08-02T00:35:33;94397.16;;;18.34;80.99
12219;BME280;6172;42.646;23.344;2022-08-02T00:38:01;94399.16;;;18.10;83.16
12219;BME280;6172;42.646;23.344;2022-08-02T00:40:29;94396.66;;;17.89;86.35
12219;BME280;6172;42.646;23.344;2022-08-02T00:43:00;94397.03;;;17.73;89.52
12219;BME280;6172;42.646;23.344;2022-08-02T00:45:28;94400.38;;;17.77;89.73
12219;BME280;6172;42.646;23.344;2022-08-02T00:47:55;94397.41;;;17.57;94.40
12219;BME280;6172;42.646;23.344;2022-08-02T00:50:22;94388.09;;;17.45;97.85
12219;BME280;6172;42.646;23.344;2022-08-02T00:52:49;94396.22;;;17.40;100.00
12219;BME280;6172;42.646;23.344;2022-08-02T00:55:18;94394.25;;;17.31;100.00
12219;BME280;6172;42.646;23.344;2022-08-02T00:57:45;94392.81;;;17.45;100.00
12219;BME280;6172;42.646;23.344;2022-08-02T01:00:12;94390.72;;;17.40;100.00
12219;BME280;6172;42.646;23.344;2022-08-02T01:02:40;94399.31;;;17.32;100.00
12219;BME280;6172;42.646;23.344;2022-08-02T01:05:07;94393.03;;;17.32;100.00
12219;BME280;6172;42.646;23.344;2022-08-02T01:07:34;94396.44;;;17.18;100.00
12219;BME280;6172;42.646;23.344;2022-08-02T01:10:01;94395.06;;;17.22;100.00
12219;BME280;6172;42.646;23.344;2022-08-02T01:12:30;94389.09;;;17.15;100.00
12219;BME280;6172;42.646;23.344;2022-08-02T01:15:00;94394.16;;;17.07;100.00
12219;BME280;6172;42.646;23.344;2022-08-02T01:17:32;94394.81;;;17.02;100.00
12219;BME280;6172;42.646;23.344;2022-08-02T01:20:07;94391.78;;;16.82;100.00
12219;BME280;6172;42.646;23.344;2022-08-02T01:22:45;94397.41;;;16.88;100.00
12219;BME280;6172;42.646;23.344;2022-08-02T01:25:31;94392.69;;;16.70;100.00
12219;BME280;6172;42.646;23.344;2022-08-02T01:28:09;94407.03;;;16.47;100.00
12219;BME280;6172;42.646;23.344;2022-08-02T01:30:43;94402.75;;;16.37;100.00
12219;BME280;6172;42.646;23.344;2022-08-02T01:33:16;94399.38;;;16.33;100.00
12219;BME280;6172;42.646;23.344;2022-08-02T01:35:47;94403.31;;;16.14;100.00
12219;BME280;6172;42.646;23.344;2022-08-02T01:38:22;94406.78;;;15.88;100.00
12219;BME280;6172;42.646;23.344;2022-08-02T01:40:52;94405.31;;;15.65;100.00
12219;BME280;6172;42.646;23.344;2022-08-02T01:43:22;94404.41;;;15.38;100.00
12219;BME280;6172;42.646;23.344;2022-08-02T01:45:52;94409.50;;;15.18;100.00
12219;BME280;6172;42.646;23.344;2022-08-02T01:48:20;94417.31;;;14.97;100.00
12219;BME280;6172;42.646;23.344;2022-08-02T01:50:48;94410.56;;;14.89;100.00
12219;BME280;6172;42.646;23.344;2022-08-02T01:53:19;94408.75;;;15.17;100.00
12219;BME280;6172;42.646;23.344;2022-08-02T01:55:49;94418.88;;;14.98;100.00
12219;BME280;6172;42.646;23.344;2022-08-02T01:58:18;94416.78;;;14.81;100.00
12219;BME280;6172;42.646;23.344;2022-08-02T02:00:47;94414.72;;;14.94;100.00
12219;BME280;6172;42.646;23.344;2022-08-02T02:03:18;94420.66;;;15.23;100.00
12219;BME280;6172;42.646;23.344;2022-08-02T02:05:46;94417.41;;;15.37;100.00
12219;BME280;6172;42.646;23.344;2022-08-02T02:08:15;94414.72;;;15.25;100.00
12219;BME280;6172;42.646;23.344;2022-08-02T02:10:45;94418.16;;;15.07;100.00
12219;BME280;6172;42.646;23.344;2022-08-02T02:13:16;94426.38;;;15.38;100.00
12219;BME280;6172;42.646;23.344;2022-08-02T02:15:48;94414.06;;;15.42;100.00
12219;BME280;6172;42.646;23.344;2022-08-02T02:18:20;94417.75;;;15.48;100.00
12219;BME280;6172;42.646;23.344;2022-08-02T02:20:49;94416.00;;;15.33;100.00
12219;BME280;6172;42.646;23.344;2022-08-02T02:23:16;94408.88;;;15.44;100.00
12219;BME280;6172;42.646;23.344;2022-08-02T02:25:43;94411.25;;;15.55;100.00
12219;BME280;6172;42.646;23.344;2022-08-02T02:28:12;94415.94;;;15.54;100.00
12219;BME280;6172;42.646;23.344;2022-08-02T02:30:48;94417.56;;;15.43;100.00
12219;BME280;6172;42.646;23.344;2022-08-02T02:33:17;94422.66;;;15.23;100.00
12219;BME280;6172;42.646;23.344;2022-08-02T02:35:45;94418.56;;;15.27;100.00
12219;BME280;6172;42.646;23.344;2022-08-02T02:38:16;94418.91;;;15.07;100.00
12219;BME280;6172;42.646;23.344;2022-08-02T02:40:44;94411.97;;;15.16;100.00
12219;BME280;6172;42.646;23.344;2022-08-02T02:43:12;94414.03;;;15.12;100.00
12219;BME280;6172;42.646;23.344;2022-08-02T02:45:40;94410.03;;;15.03;100.00
12219;BME280;6172;42.646;23.344;2022-08-02T02:48:08;94423.94;;;15.09;100.00
12219;BME280;6172;42.646;23.344;2022-08-02T02:50:37;94421.38;;;15.15;100.00
12219;BME280;6172;42.646;23.344;2022-08-02T02:53:05;94415.97;;;15.02;100.00
12219;BME280;6172;42.646;23.344;2022-08-02T02:55:33;94416.88;;;14.99;100.00
12219;BME280;6172;42.646;23.344;2022-08-02T02:58:00;94416.56;;;14.97;100.00
12219;BME280;6172;42.646;23.344;2022-08-02T03:00:28;94410.69;;;14.86;100.00
12219;BME280;6172;42.646;23.344;2022-08-02T03:03:10;94423.84;;;14.57;100.00
12219;BME280;6172;42.646;23.344;2022-08-02T03:05:39;94418.03;;;14.33;100.00
12219;BME280;6172;42.646;23.344;2022-08-02T03:08:07;94418.56;;;14.41;100.00
12219;BME280;6172;42.646;23.344;2022-08-02T03:10:34;94423.22;;;14.53;100.00
12219;BME280;6172;42.646;23.344;2022-08-02T03:13:01;94422.84;;;14.63;100.00
12219;BME280;6172;42.646;23.344;2022-08-02T03:15:29;94413.72;;;14.66;100.00
12219;BME280;6172;42.646;23.344;2022-08-02T03:17:56;94423.03;;;14.69;100.00
12219;BME280;6172;42.646;23.344;2022-08-02T03:20:23;94427.56;;;14.75;100.00
12219;BME280;6172;42.646;23.344;2022-08-02T03:22:51;94416.63;;;14.84;100.00
12219;BME280;6172;42.646;23.344;2022-08-02T03:25:18;94420.84;;;14.98;100.00
12219;BME280;6172;42.646;23.344;2022-08-02T03:27:45;94423.19;;;15.09;100.00
12219;BME280;6172;42.646;23.344;2022-08-02T03:30:13;94419.16;;;15.22;100.00
12219;BME280;6172;42.646;23.344;2022-08-02T03:32:43;94422.84;;;15.28;100.00
12219;BME280;6172;42.646;23.344;2022-08-02T03:35:12;94414.34;;;15.35;100.00
12219;BME280;6172;42.646;23.344;2022-08-02T03:37:40;94407.31;;;15.34;100.00
12219;BME280;6172;42.646;23.344;2022-08-02T03:40:10;94413.38;;;15.29;100.00
12219;BME280;6172;42.646;23.344;2022-08-02T03:42:39;94416.75;;;15.33;100.00
12219;BME280;6172;42.646;23.344;2022-08-02T03:45:08;94421.09;;;15.43;100.00
12219;BME280;6172;42.646;23.344;2022-08-02T03:47:37;94419.28;;;15.49;100.00
12219;BME280;6172;42.646;23.344;2022-08-02T03:50:06;94417.63;;;15.52;100.00
12219;BME280;6172;42.646;23.344;2022-08-02T03:52:34;94419.28;;;15.49;100.00
12219;BME280;6172;42.646;23.344;2022-08-02T03:55:01;94428.34;;;15.28;100.00
12219;BME280;6172;42.646;23.344;2022-08-02T03:57:30;94436.53;;;15.50;100.00
12219;BME280;6172;42.646;23.344;2022-08-02T03:59:57;94433.81;;;15.28;100.00
12219;BME280;6172;42.646;23.344;2022-08-02T04:02:24;94443.69;;;15.47;100.00
12219;BME280;6172;42.646;23.344;2022-08-02T04:04:51;94445.44;;;15.32;100.00
12219;BME280;6172;42.646;23.344;2022-08-02T04:07:18;94447.34;;;15.44;100.00
12219;BME280;6172;42.646;23.344;2022-08-02T04:09:45;94447.06;;;15.51;100.00
12219;BME280;6172;42.646;23.344;2022-08-02T04:12:12;94450.44;;;15.55;100.00
12219;BME280;6172;42.646;23.344;2022-08-02T04:14:40;94457.03;;;15.67;100.00
12219;BME280;6172;42.646;23.344;2022-08-02T04:17:08;94452.09;;;15.74;100.00
12219;BME280;6172;42.646;23.344;2022-08-02T04:19:37;94471.63;;;15.76;100.00
12219;BME280;6172;42.646;23.344;2022-08-02T04:22:10;94468.16;;;15.85;100.00
12219;BME280;6172;42.646;23.344;2022-08-02T04:24:43;94462.63;;;15.76;100.00
12219;BME280;6172;42.646;23.344;2022-08-02T04:27:12;94459.31;;;15.90;100.00
12219;BME280;6172;42.646;23.344;2022-08-02T04:29:41;94459.50;;;16.04;100.00
12219;BME280;6172;42.646;23.344;2022-08-02T04:32:09;94460.00;;;16.12;100.00
12219;BME280;6172;42.646;23.344;2022-08-02T04:34:36;94458.94;;;16.18;100.00
12219;BME280;6172;42.646;23.344;2022-08-02T04:37:02;94459.25;;;16.20;100.00
12219;BME280;6172;42.646;23.344;2022-08-02T04:39:30;94462.03;;;16.29;100.00
12219;BME280;6172;42.646;23.344;2022-08-02T04:41:57;94457.63;;;16.41;100.00
12219;BME280;6172;42.646;23.344;2022-08-02T04:44:24;94451.19;;;16.44;100.00
12219;BME280;6172;42.646;23.344;2022-08-02T04:46:52;94457.94;;;16.52;100.00
12219;BME280;6172;42.646;23.344;2022-08-02T04:49:20;94448.00;;;16.54;100.00
12219;BME280;6172;42.646;23.344;2022-08-02T04:51:47;94457.50;;;16.71;100.00
12219;BME280;6172;42.646;23.344;2022-08-02T04:54:14;94457.19;;;16.78;100.00
12219;BME280;6172;42.646;23.344;2022-08-02T04:56:41;94456.28;;;16.81;100.00
12219;BME280;6172;42.646;23.344;2022-08-02T04:59:07;94454.16;;;16.85;100.00
12219;BME280;6172;42.646;23.344;2022-08-02T05:01:34;94463.94;;;16.95;100.00
12219;BME280;6172;42.646;23.344;2022-08-02T05:04:03;94455.38;;;17.02;100.00
12219;BME280;6172;42.646;23.344;2022-08-02T05:06:30;94452.16;;;17.04;100.00
12219;BME280;6172;42.646;23.344;2022-08-02T05:08:57;94456.56;;;17.19;100.00
12219;BME280;6172;42.646;23.344;2022-08-02T05:11:24;94463.00;;;17.16;100.00
12219;BME280;6172;42.646;23.344;2022-08-02T05:13:51;94455.00;;;17.27;100.00
12219;BME280;6172;42.646;23.344;2022-08-02T05:16:17;94458.81;;;17.39;100.00
12219;BME280;6172;42.646;23.344;2022-08-02T05:18:44;94456.94;;;17.54;100.00
12219;BME280;6172;42.646;23.344;2022-08-02T05:21:13;94467.66;;;17.52;100.00
12219;BME280;6172;42.646;23.344;2022-08-02T05:23:39;94461.81;;;17.68;100.00
12219;BME280;6172;42.646;23.344;2022-08-02T05:26:06;94467.56;;;17.88;100.00
12219;BME280;6172;42.646;23.344;2022-08-02T05:28:33;94470.56;;;18.08;100.00
12219;BME280;6172;42.646;23.344;2022-08-02T05:31:00;94471.56;;;18.20;100.00
12219;BME280;6172;42.646;23.344;2022-08-02T05:33:27;94468.41;;;18.36;100.00
12219;BME280;6172;42.646;23.344;2022-08-02T05:35:54;94471.28;;;18.50;98.07
12219;BME280;6172;42.646;23.344;2022-08-02T05:38:24;94477.59;;;18.65;95.53
12219;BME280;6172;42.646;23.344;2022-08-02T05:40:52;94483.16;;;18.80;92.27
12219;BME280;6172;42.646;23.344;2022-08-02T05:43:19;94475.25;;;18.96;91.19
12219;BME280;6172;42.646;23.344;2022-08-02T05:45:47;94484.09;;;19.24;88.50
12219;BME280;6172;42.646;23.344;2022-08-02T05:48:15;94482.75;;;19.63;86.07
12219;BME280;6172;42.646;23.344;2022-08-02T05:50:44;94478.75;;;20.97;72.83
12219;BME280;6172;42.646;23.344;2022-08-02T05:53:20;94471.66;;;23.72;55.20
12219;BME280;6172;42.646;23.344;2022-08-02T05:55:58;94466.22;;;26.34;44.08
12219;BME280;6172;42.646;23.344;2022-08-02T05:58:35;94467.88;;;28.31;37.02
12219;BME280;6172;42.646;23.344;2022-08-02T06:01:08;94468.38;;;30.25;33.45
12219;BME280;6172;42.646;23.344;2022-08-02T06:03:38;94463.47;;;31.79;29.97
12219;BME280;6172;42.646;23.344;2022-08-02T06:06:10;94465.13;;;32.17;28.84
12219;BME280;6172;42.646;23.344;2022-08-02T06:08:41;94481.72;;;33.26;27.19
12219;BME280;6172;42.646;23.344;2022-08-02T06:11:12;94475.00;;;34.23;25.21
12219;BME280;6172;42.646;23.344;2022-08-02T06:13:40;94473.69;;;35.06;23.77
12219;BME280;6172;42.646;23.344;2022-08-02T06:16:08;94476.44;;;35.72;23.02
12219;BME280;6172;42.646;23.344;2022-08-02T06:18:35;94477.56;;;36.46;21.87
12219;BME280;6172;42.646;23.344;2022-08-02T06:21:04;94478.63;;;35.22;22.86
12219;BME280;6172;42.646;23.344;2022-08-02T06:23:33;94477.25;;;35.99;22.07
12219;BME280;6172;42.646;23.344;2022-08-02T06:26:06;94471.63;;;36.25;21.77
12219;BME280;6172;42.646;23.344;2022-08-02T06:28:37;94477.25;;;35.99;22.52
12219;BME280;6172;42.646;23.344;2022-08-02T06:31:05;94482.59;;;36.92;21.19
12219;BME280;6172;42.646;23.344;2022-08-02T06:33:32;94481.78;;;36.55;21.24
12219;BME280;6172;42.646;23.344;2022-08-02T06:36:02;94487.38;;;36.63;21.29
12219;BME280;6172;42.646;23.344;2022-08-02T06:38:33;94491.06;;;36.29;21.01
12219;BME280;6172;42.646;23.344;2022-08-02T06:41:06;94493.03;;;36.36;21.66
12219;BME280;6172;42.646;23.344;2022-08-02T06:43:40;94502.97;;;37.07;20.93
12219;BME280;6172;42.646;23.344;2022-08-02T06:46:10;94488.94;;;37.74;19.68
12219;BME280;6172;42.646;23.344;2022-08-02T06:48:37;94494.63;;;37.09;20.58
12219;BME280;6172;42.646;23.344;2022-08-02T06:51:04;94485.78;;;37.05;20.76
12219;BME280;6172;42.646;23.344;2022-08-02T06:53:31;94480.19;;;36.88;20.60
12219;BME280;6172;42.646;23.344;2022-08-02T06:55:58;94482.13;;;36.59;21.24
12219;BME280;6172;42.646;23.344;2022-08-02T06:58:25;94479.44;;;36.34;21.17
12219;BME280;6172;42.646;23.344;2022-08-02T07:00:53;94487.97;;;36.61;20.98
12219;BME280;6172;42.646;23.344;2022-08-02T07:03:21;94484.50;;;35.92;21.64
12219;BME280;6172;42.646;23.344;2022-08-02T07:05:50;94483.28;;;35.27;22.29
12219;BME280;6172;42.646;23.344;2022-08-02T07:08:17;94488.94;;;36.03;21.48
12219;BME280;6172;42.646;23.344;2022-08-02T07:10:45;94480.09;;;37.05;20.40
12219;BME280;6172;42.646;23.344;2022-08-02T07:13:12;94484.13;;;36.39;21.20
12219;BME280;6172;42.646;23.344;2022-08-02T07:15:39;94479.75;;;35.95;21.61
12219;BME280;6172;42.646;23.344;2022-08-02T07:18:07;94484.72;;;36.21;21.74
12219;BME280;6172;42.646;23.344;2022-08-02T07:20:39;94481.88;;;36.21;21.56
12219;BME280;6172;42.646;23.344;2022-08-02T07:23:06;94484.00;;;36.03;22.19
12219;BME280;6172;42.646;23.344;2022-08-02T07:25:34;94481.84;;;36.91;21.30
12219;BME280;6172;42.646;23.344;2022-08-02T07:28:00;94483.25;;;36.73;21.12
12219;BME280;6172;42.646;23.344;2022-08-02T07:30:27;94479.22;;;36.76;21.18
12219;BME280;6172;42.646;23.344;2022-08-02T07:32:56;94474.91;;;36.05;21.61
12219;BME280;6172;42.646;23.344;2022-08-02T07:35:24;94473.31;;;36.91;21.25
12219;BME280;6172;42.646;23.344;2022-08-02T07:37:51;94473.91;;;36.36;21.29
12219;BME280;6172;42.646;23.344;2022-08-02T07:40:18;94472.84;;;35.71;22.13
12219;BME280;6172;42.646;23.344;2022-08-02T07:42:46;94472.34;;;35.99;22.12
12219;BME280;6172;42.646;23.344;2022-08-02T07:45:13;94467.19;;;36.95;21.05
12219;BME280;6172;42.646;23.344;2022-08-02T07:47:41;94465.91;;;35.82;22.36
12219;BME280;6172;42.646;23.344;2022-08-02T07:50:09;94470.25;;;35.49;22.63
12219;BME280;6172;42.646;23.344;2022-08-02T07:52:38;94457.50;;;35.57;22.35
12219;BME280;6172;42.646;23.344;2022-08-02T07:55:05;94463.25;;;35.67;22.28
12219;BME280;6172;42.646;23.344;2022-08-02T07:57:32;94467.28;;;35.64;22.63
12219;BME280;6172;42.646;23.344;2022-08-02T07:59:59;94472.97;;;35.90;22.09
12219;BME280;6172;42.646;23.344;2022-08-02T08:02:26;94479.69;;;35.10;23.13
12219;BME280;6172;42.646;23.344;2022-08-02T08:04:53;94479.22;;;35.21;22.74
12219;BME280;6172;42.646;23.344;2022-08-02T08:07:19;94470.28;;;35.07;22.31
12219;BME280;6172;42.646;23.344;2022-08-02T08:09:48;94479.16;;;35.28;22.76
12219;BME280;6172;42.646;23.344;2022-08-02T08:12:15;94475.34;;;34.60;23.12
12219;BME280;6172;42.646;23.344;2022-08-02T08:14:43;94470.84;;;34.81;23.31
12219;BME280;6172;42.646;23.344;2022-08-02T08:17:10;94472.69;;;34.29;24.01
12219;BME280;6172;42.646;23.344;2022-08-02T08:19:37;94479.72;;;34.53;23.50
12219;BME280;6172;42.646;23.344;2022-08-02T08:22:04;94464.59;;;35.49;22.35
12219;BME280;6172;42.646;23.344;2022-08-02T08:24:31;94474.69;;;34.76;22.67
12219;BME280;6172;42.646;23.344;2022-08-02T08:26:59;94480.25;;;33.87;24.34
12219;BME280;6172;42.646;23.344;2022-08-02T08:29:26;94469.06;;;34.69;23.18
12219;BME280;6172;42.646;23.344;2022-08-02T08:31:52;94465.97;;;34.49;23.16
12219;BME280;6172;42.646;23.344;2022-08-02T08:34:19;94471.34;;;33.29;24.18
12219;BME280;6172;42.646;23.344;2022-08-02T08:36:48;94475.78;;;34.16;23.88
12219;BME280;6172;42.646;23.344;2022-08-02T08:39:15;94469.13;;;33.89;24.14
12219;BME280;6172;42.646;23.344;2022-08-02T08:41:42;94472.25;;;33.46;25.16
12219;BME280;6172;42.646;23.344;2022-08-02T08:44:10;94466.66;;;33.09;25.44
12219;BME280;6172;42.646;23.344;2022-08-02T08:46:40;94463.66;;;33.14;25.35
12219;BME280;6172;42.646;23.344;2022-08-02T08:49:11;94479.13;;;32.91;25.38
12219;BME280;6172;42.646;23.344;2022-08-02T08:51:41;94474.59;;;32.80;25.84
12219;BME280;6172;42.646;23.344;2022-08-02T08:54:12;94479.31;;;31.97;26.13
12219;BME280;6172;42.646;23.344;2022-08-02T08:56:41;94470.06;;;31.53;26.11
12219;BME280;6172;42.646;23.344;2022-08-02T08:59:10;94478.91;;;29.98;28.54
12219;BME280;6172;42.646;23.344;2022-08-02T09:01:37;94472.34;;;29.96;28.54
12219;BME280;6172;42.646;23.344;2022-08-02T09:04:04;94471.81;;;30.72;28.20
12219;BME280;6172;42.646;23.344;2022-08-02T09:06:31;94467.81;;;30.47;28.02
12219;BME280;6172;42.646;23.344;2022-08-02T09:08:57;94462.59;;;30.72;27.74
12219;BME280;6172;42.646;23.344;2022-08-02T09:11:24;94468.97;;;30.93;27.74
12219;BME280;6172;42.646;23.344;2022-08-02T09:13:53;94472.31;;;30.29;28.70
12219;BME280;6172;42.646;23.344;2022-08-02T09:16:32;94468.09;;;30.02;29.44
12219;BME280;6172;42.646;23.344;2022-08-02T09:19:00;94471.19;;;30.25;29.10
12219;BME280;6172;42.646;23.344;2022-08-02T09:21:34;94467.16;;;29.40;28.68
12219;BME280;6172;42.646;23.344;2022-08-02T09:24:01;94476.19;;;28.81;29.66
12219;BME280;6172;42.646;23.344;2022-08-02T09:26:29;94469.53;;;28.84;29.88
12219;BME280;6172;42.646;23.344;2022-08-02T09:29:00;94466.09;;;29.17;29.48
12219;BME280;6172;42.646;23.344;2022-08-02T09:31:29;94459.69;;;29.43;29.22
12219;BME280;6172;42.646;23.344;2022-08-02T09:34:01;94470.41;;;29.31;29.53
12219;BME280;6172;42.646;23.344;2022-08-02T09:36:36;94462.81;;;29.52;29.53
12219;BME280;6172;42.646;23.344;2022-08-02T09:39:05;94463.78;;;28.64;29.74
12219;BME280;6172;42.646;23.344;2022-08-02T09:41:34;94458.38;;;28.21;30.18
12219;BME280;6172;42.646;23.344;2022-08-02T09:44:03;94457.47;;;29.02;29.94
12219;BME280;6172;42.646;23.344;2022-08-02T09:46:33;94455.16;;;29.40;29.73
12219;BME280;6172;42.646;23.344;2022-08-02T09:49:03;94449.69;;;30.14;30.16
12219;BME280;6172;42.646;23.344;2022-08-02T09:51:31;94461.16;;;30.16;29.11
12219;BME280;6172;42.646;23.344;2022-08-02T09:54:00;94450.25;;;30.13;28.96
12219;BME280;6172;42.646;23.344;2022-08-02T09:56:37;94443.47;;;30.50;28.04
12219;BME280;6172;42.646;23.344;2022-08-02T09:59:06;94442.72;;;30.49;28.32
12219;BME280;6172;42.646;23.344;2022-08-02T10:01:35;94442.00;;;31.05;27.47
12219;BME280;6172;42.646;23.344;2022-08-02T10:04:05;94443.38;;;30.63;27.95
12219;BME280;6172;42.646;23.344;2022-08-02T10:06:32;94443.19;;;30.61;27.96
12219;BME280;6172;42.646;23.344;2022-08-02T10:08:59;94444.91;;;30.92;28.21
12219;BME280;6172;42.646;23.344;2022-08-02T10:11:27;94436.69;;;31.57;27.80
12219;BME280;6172;42.646;23.344;2022-08-02T10:13:54;94432.28;;;31.77;26.94
12219;BME280;6172;42.646;23.344;2022-08-02T10:16:22;94442.31;;;31.57;27.39
12219;BME280;6172;42.646;23.344;2022-08-02T10:18:52;94441.91;;;31.89;27.40
12219;BME280;6172;42.646;23.344;2022-08-02T10:21:22;94443.19;;;31.88;27.41
12219;BME280;6172;42.646;23.344;2022-08-02T10:23:59;94429.38;;;31.26;27.92
12219;BME280;6172;42.646;23.344;2022-08-02T10:26:30;94437.03;;;31.54;27.45
12219;BME280;6172;42.646;23.344;2022-08-02T10:28:57;94442.50;;;30.96;27.64
12219;BME280;6172;42.646;23.344;2022-08-02T10:31:33;94441.41;;;30.29;28.83
12219;BME280;6172;42.646;23.344;2022-08-02T10:34:02;94422.94;;;30.83;28.41
12219;BME280;6172;42.646;23.344;2022-08-02T10:36:34;94431.59;;;29.89;29.86
12219;BME280;6172;42.646;23.344;2022-08-02T10:39:03;94428.59;;;29.28;31.33
12219;BME280;6172;42.646;23.344;2022-08-02T10:41:45;94433.47;;;28.88;32.18
12219;BME280;6172;42.646;23.344;2022-08-02T10:44:23;94430.03;;;29.21;31.52
12219;BME280;6172;42.646;23.344;2022-08-02T10:46:50;94427.16;;;29.73;30.83
12219;BME280;6172;42.646;23.344;2022-08-02T10:49:20;94426.94;;;30.25;29.31
12219;BME280;6172;42.646;23.344;2022-08-02T10:51:55;94424.81;;;30.18;29.15
12219;BME280;6172;42.646;23.344;2022-08-02T10:54:23;94423.22;;;30.10;28.58
12219;BME280;6172;42.646;23.344;2022-08-02T10:56:52;94437.13;;;29.48;29.75
12219;BME280;6172;42.646;23.344;2022-08-02T10:59:24;94427.50;;;29.44;30.55
12219;BME280;6172;42.646;23.344;2022-08-02T11:01:51;94433.41;;;29.53;30.67
12219;BME280;6172;42.646;23.344;2022-08-02T11:04:27;94424.41;;;29.34;30.65
12219;BME280;6172;42.646;23.344;2022-08-02T11:07:11;94418.94;;;29.62;30.55
12219;BME280;6172;42.646;23.344;2022-08-02T11:09:40;94423.81;;;29.95;30.94
12219;BME280;6172;42.646;23.344;2022-08-02T11:12:08;94417.34;;;30.08;29.51
12219;BME280;6172;42.646;23.344;2022-08-02T11:14:36;94425.00;;;29.53;30.73
12219;BME280;6172;42.646;23.344;2022-08-02T11:17:07;94422.84;;;29.93;30.62
12219;BME280;6172;42.646;23.344;2022-08-02T11:20:15;94425.63;;;29.72;30.63
12219;BME280;6172;42.646;23.344;2022-08-02T11:22:43;94419.94;;;29.85;29.91
12219;BME280;6172;42.646;23.344;2022-08-02T11:25:32;94416.69;;;29.94;29.59
12219;BME280;6172;42.646;23.344;2022-08-02T11:28:06;94418.78;;;29.81;29.89
12219;BME280;6172;42.646;23.344;2022-08-02T11:30:34;94421.50;;;29.27;30.75
12219;BME280;6172;42.646;23.344;2022-08-02T11:33:01;94408.94;;;29.41;31.00
12219;BME280;6172;42.646;23.344;2022-08-02T11:35:35;94411.41;;;29.57;30.86
12219;BME280;6172;42.646;23.344;2022-08-02T11:38:12;94423.03;;;28.44;31.85
12219;BME280;6172;42.646;23.344;2022-08-02T11:40:40;94413.88;;;28.44;32.20
12219;BME280;6172;42.646;23.344;2022-08-02T11:43:18;94415.56;;;28.65;31.90
12219;BME280;6172;42.646;23.344;2022-08-02T11:45:46;94412.00;;;28.78;32.09
12219;BME280;6172;42.646;23.344;2022-08-02T11:48:13;94419.00;;;28.13;32.57
12219;BME280;6172;42.646;23.344;2022-08-02T11:50:41;94416.84;;;27.88;33.20
12219;BME280;6172;42.646;23.344;2022-08-02T11:53:12;94418.16;;;27.50;33.87
12219;BME280;6172;42.646;23.344;2022-08-02T11:55:39;94411.78;;;27.31;33.51
12219;BME280;6172;42.646;23.344;2022-08-02T11:58:06;94409.69;;;27.55;33.52
12219;BME280;6172;42.646;23.344;2022-08-02T12:00:36;94404.09;;;27.87;33.49
12219;BME280;6172;42.646;23.344;2022-08-02T12:03:03;94405.25;;;27.97;33.54
12219;BME280;6172;42.646;23.344;2022-08-02T12:05:30;94403.84;;;28.35;33.27
12219;BME280;6172;42.646;23.344;2022-08-02T12:07:58;94410.78;;;28.47;33.22
12219;BME280;6172;42.646;23.344;2022-08-02T12:10:25;94397.53;;;28.74;32.56
12219;BME280;6172;42.646;23.344;2022-08-02T12:12:53;94408.66;;;28.92;32.09
12219;BME280;6172;42.646;23.344;2022-08-02T12:15:32;94407.56;;;28.69;32.50
12219;BME280;6172;42.646;23.344;2022-08-02T12:17:59;94406.72;;;28.74;33.22
12219;BME280;6172;42.646;23.344;2022-08-02T12:20:44;94410.16;;;29.19;31.91
12219;BME280;6172;42.646;23.344;2022-08-02T12:23:13;94411.03;;;29.01;31.38
12219;BME280;6172;42.646;23.344;2022-08-02T12:25:40;94404.88;;;28.90;31.92
12219;BME280;6172;42.646;23.344;2022-08-02T12:28:14;94408.13;;;29.07;31.17
12219;BME280;6172;42.646;23.344;2022-08-02T12:30:50;94410.50;;;29.16;31.22
12219;BME280;6172;42.646;23.344;2022-08-02T12:33:18;94404.53;;;29.32;30.63
12219;BME280;6172;42.646;23.344;2022-08-02T12:35:45;94409.06;;;29.35;30.48
12219;BME280;6172;42.646;23.344;2022-08-02T12:38:13;94408.66;;;29.31;31.18
12219;BME280;6172;42.646;23.344;2022-08-02T12:40:41;94411.00;;;28.49;32.23
12219;BME280;6172;42.646;23.344;2022-08-02T12:43:16;94408.63;;;28.53;32.81
12219;BME280;6172;42.646;23.344;2022-08-02T12:45:48;94405.13;;;28.34;32.73
12219;BME280;6172;42.646;23.344;2022-08-02T12:48:16;94401.97;;;28.69;32.96
12219;BME280;6172;42.646;23.344;2022-08-02T12:50:43;94408.69;;;28.35;32.84
12219;BME280;6172;42.646;23.344;2022-08-02T12:53:12;94404.19;;;28.00;33.27
12219;BME280;6172;42.646;23.344;2022-08-02T12:55:48;94406.00;;;28.42;33.03
12219;BME280;6172;42.646;23.344;2022-08-02T12:58:15;94395.81;;;28.58;33.06
12219;BME280;6172;42.646;23.344;2022-08-02T13:00:50;94389.78;;;28.80;32.37
12219;BME280;6172;42.646;23.344;2022-08-02T13:03:19;94394.94;;;28.89;32.78
12219;BME280;6172;42.646;23.344;2022-08-02T13:05:46;94387.09;;;28.61;32.95
12219;BME280;6172;42.646;23.344;2022-08-02T13:08:13;94389.56;;;28.65;32.44
12219;BME280;6172;42.646;23.344;2022-08-02T13:10:41;94389.97;;;28.82;32.20